createdAt,value
2023-02-14T08:07:00.447Z,12.00
2023-02-14T08:12:18.073Z,13.80
2023-02-14T08:17:23.265Z,15.40
2023-02-14T08:22:31.213Z,16.70
2023-02-14T08:27:36.239Z,18.40
2023-02-14T08:32:41.381Z,19.60
2023-02-14T08:37:49.197Z,20.60
2023-02-14T08:42:54.369Z,21.30
2023-02-14T08:48:04.945Z,21.70
2023-02-14T08:53:13.876Z,22.60
2023-02-14T08:58:19.256Z,24.00
2023-02-14T09:03:24.373Z,24.80
2023-02-14T09:08:32.154Z,24.90
2023-02-14T09:13:37.990Z,25.10
2023-02-14T09:18:43.160Z,25.50
2023-02-14T18:31:46.766Z,7.60
2023-02-14T18:36:51.880Z,7.00
2023-02-14T18:42:00.026Z,6.90
2023-02-14T18:47:07.817Z,6.90
2023-02-14T18:52:13.087Z,6.90
2023-02-14T18:57:18.302Z,6.80
2023-02-14T19:02:25.996Z,6.70
2023-02-14T19:07:31.867Z,6.70
2023-02-14T19:12:37.404Z,6.50
2023-02-14T19:17:45.470Z,6.40
2023-02-14T19:22:50.692Z,6.30
2023-02-14T19:27:56.460Z,6.20
2023-02-14T19:33:04.323Z,6.10
2023-02-14T19:38:10.020Z,6.00
2023-02-14T19:43:15.251Z,5.90
2023-02-14T19:48:22.987Z,5.80
2023-02-14T19:53:28.192Z,5.70
2023-02-14T19:58:33.414Z,5.60
2023-02-14T20:03:42.157Z,5.50
2023-02-14T20:08:47.735Z,5.40
2023-02-14T20:13:53.123Z,5.30
2023-02-14T20:19:01.155Z,5.30
2023-02-14T20:24:07.197Z,5.20
2023-02-14T20:29:13.048Z,5.10
2023-02-14T20:34:21.134Z,5.00
2023-02-14T20:39:30.536Z,5.00
2023-02-14T20:44:35.799Z,4.90
2023-02-14T20:49:44.796Z,4.80
2023-02-14T20:54:49.969Z,4.80
2023-02-14T20:59:55.239Z,4.70
2023-02-14T21:05:02.894Z,4.70
2023-02-14T21:10:10.078Z,4.60
2023-02-14T21:15:15.184Z,4.50
2023-02-14T21:20:23.529Z,4.50
2023-02-14T21:25:28.795Z,4.50
2023-02-14T21:30:33.929Z,4.50
2023-02-14T21:35:42.007Z,4.40
2023-02-14T21:40:47.198Z,4.40
2023-02-14T21:46:02.718Z,4.30
2023-02-14T21:51:10.585Z,4.30
